Time;durP1;ratioP1;P1;durP2;ratioP2;P2;SDS_P1;SDS_P2;PMS_P1;PMS_P2;Temp;Humidity;BMP_temperature;BMP_pressure;BME280_temperature;BME280_humidity;BME280_pressure;Samples;Min_cycle;Max_cycle;Signal;HPM_P1;HPM_P2
2021/11/03 00:00:10;;;;;;;60.78;13.85;;;;;;;;;;5045431;28;20172;-69
2021/11/03 00:02:37;;;;;;;62.97;13.25;;;;;;;;;;5038445;28;20610;-69
2021/11/03 00:05:04;;;;;;;29.20;9.40;;;;;;;;;;5044199;28;20080;-69
2021/11/03 00:07:31;;;;;;;45.08;13.35;;;;;;;;;;5037716;28;20088;-69
2021/11/03 00:09:58;;;;;;;66.68;14.55;;;;;;;;;;5034039;28;20042;-69
2021/11/03 00:12:24;;;;;;;;;;;;;;;;;;5044660;28;20508;-69
2021/11/03 00:14:51;;;;;;;45.83;12.68;;;;;;;;;;5037469;28;19971;-69
2021/11/03 00:17:17;;;;;;;55.95;14.18;;;;;;;;;;5044635;28;20095;-69
2021/11/03 00:19:44;;;;;;;57.50;15.45;;;;;;;;;;5039794;28;20068;-69
2021/11/03 00:22:12;;;;;;;42.95;14.02;;;;;;;;;;5043011;28;20073;-69
2021/11/03 00:24:38;;;;;;;49.83;14.00;;;;;;;;;;5038360;28;20072;-69
2021/11/03 00:27:05;;;;;;;35.93;13.83;;;;;;;;;;5037270;28;20128;-69
2021/11/03 00:29:31;;;;;;;43.47;14.25;;;;;;;;;;5035471;28;20136;-69
2021/11/03 00:31:58;;;;;;;39.50;14.52;;;;;;;;;;5042436;28;20532;-69
2021/11/03 00:34:24;;;;;;;56.35;15.45;;;;;;;;;;5038271;28;20041;-69
2021/11/03 00:36:51;;;;;;;42.17;14.38;;;;;;;;;;5040843;28;20199;-70
2021/11/03 00:39:17;;;;;;;48.38;15.48;;;;;;;;;;5035952;28;20133;-69
2021/11/03 00:41:49;;;;;;;45.13;14.60;;;;;;;;;;5038858;28;20056;-69
2021/11/03 00:44:16;;;;;;;43.30;14.38;;;;;;;;;;5039271;28;20119;-70
2021/11/03 00:46:42;;;;;;;57.50;15.38;;;;;;;;;;5035951;28;20166;-69
2021/11/03 00:49:08;;;;;;;52.92;15.35;;;;;;;;;;5038430;28;20107;-69
2021/11/03 00:51:35;;;;;;;50.35;15.88;;;;;;;;;;5041366;28;20651;-69
2021/11/03 00:54:01;;;;;;;38.10;14.33;;;;;;;;;;5035900;28;20109;-69
2021/11/03 00:56:28;;;;;;;42.55;14.55;;;;;;;;;;5037757;28;20497;-70
2021/11/03 00:58:54;;;;;;;44.13;14.75;;;;;;;;;;5037092;28;20041;-69
2021/11/03 01:01:21;;;;;;;41.55;15.00;;;;;;;;;;5037691;28;20052;-69
2021/11/03 01:03:48;;;;;;;44.90;15.52;;;;;;;;;;5039679;28;20572;-69
2021/11/03 01:06:14;;;;;;;47.47;14.75;;;;;;;;;;5038806;28;20576;-70
2021/11/03 01:08:41;;;;;;;39.80;15.23;;;;;;;;;;5033853;28;20568;-69
2021/11/03 01:11:08;;;;;;;46.63;15.68;;;;;;;;;;5042711;28;20088;-70
2021/11/03 01:13:55;;;;;;;36.55;13.82;;;;;;;;;;5042252;28;20057;-69
2021/11/03 01:16:21;;;;;;;40.80;15.40;;;;;;;;;;5040084;28;20077;-69
2021/11/03 01:18:53;;;;;;;41.50;15.82;;;;;;;;;;5037162;28;20496;-69
2021/11/03 01:21:22;;;;;;;47.28;16.17;;;;;;;;;;5042206;28;20048;-69
2021/11/03 01:23:50;;;;;;;40.08;15.27;;;;;;;;;;5039020;28;20052;-69
2021/11/03 01:26:16;;;;;;;41.05;15.40;;;;;;;;;;5019838;28;20139;-69
2021/11/03 01:28:42;;;;;;;40.78;15.05;;;;;;;;;;5043303;28;20138;-69
2021/11/03 01:31:10;;;;;;;38.67;14.07;;;;;;;;;;5038619;28;20085;-69
2021/11/03 01:33:36;;;;;;;48.17;16.77;;;;;;;;;;5038353;28;20053;-69
2021/11/03 01:36:03;;;;;;;38.80;15.73;;;;;;;;;;5035894;28;20134;-69
2021/11/03 01:38:31;;;;;;;51.30;16.90;;;;;;;;;;5038667;28;20747;-69
2021/11/03 01:40:57;;;;;;;45.83;17.20;;;;;;;;;;5035813;28;20060;-69
2021/11/03 01:43:41;;;;;;;39.65;15.98;;;;;;;;;;5039787;28;20100;-70
2021/11/03 01:46:21;;;;;;;42.30;17.45;;;;;;;;;;5039111;28;20140;-69
2021/11/03 01:48:49;;;;;;;57.92;16.88;;;;;;;;;;5036750;28;20051;-69
2021/11/03 01:51:22;;;;;;;44.38;17.05;;;;;;;;;;5042023;28;20144;-69
2021/11/03 01:53:49;;;;;;;61.40;18.27;;;;;;;;;;5038682;28;20056;-69
2021/11/03 01:56:16;;;;;;;51.28;17.13;;;;;;;;;;5043008;28;20144;-69
2021/11/03 01:58:48;;;;;;;55.53;17.88;;;;;;;;;;5036620;28;20124;-69
2021/11/03 02:01:15;;;;;;;49.53;15.98;;;;;;;;;;5042630;28;20497;-69
2021/11/03 02:03:42;;;;;;;50.25;16.60;;;;;;;;;;5039816;28;20100;-69
2021/11/03 02:06:13;;;;;;;96.93;20.85;;;;;;;;;;5039308;28;20135;-69
2021/11/03 02:08:41;;;;;;;54.75;16.75;;;;;;;;;;5045018;28;20592;-69
2021/11/03 02:11:08;;;;;;;60.50;16.52;;;;;;;;;;5042947;28;20140;-69
2021/11/03 02:13:35;;;;;;;477.92;25.42;;;;;;;;;;5036689;28;20041;-69
2021/11/03 02:16:03;;;;;;;293.13;22.73;;;;;;;;;;5041036;28;20195;-69
2021/11/03 02:18:31;;;;;;;310.02;18.30;;;;;;;;;;5045176;28;20052;-69
2021/11/03 02:20:57;;;;;;;;;;;;;;;;;;5041016;28;20548;-69
2021/11/03 02:23:24;;;;;;;260.45;16.90;;;;;;;;;;5038064;28;19956;-69
2021/11/03 02:26:00;;;;;;;261.30;17.75;;;;;;;;;;5037764;28;20139;-69
2021/11/03 02:28:27;;;;;;;433.67;22.25;;;;;;;;;;5041205;28;20056;-69
2021/11/03 02:30:54;;;;;;;357.17;19.40;;;;;;;;;;5043839;28;20552;-69
2021/11/03 02:33:22;;;;;;;371.48;19.65;;;;;;;;;;5041715;28;20084;-70
2021/11/03 02:35:54;;;;;;;293.08;21.20;;;;;;;;;;5040780;28;20073;-69
2021/11/03 02:38:26;;;;;;;172.88;14.32;;;;;;;;;;5043920;28;20073;-68
2021/11/03 02:40:57;;;;;;;163.40;13.95;;;;;;;;;;5040689;28;20639;-69
2021/11/03 02:43:34;;;;;;;137.45;15.02;;;;;;;;;;5040718;28;20076;-69
2021/11/03 02:46:01;;;;;;;120.78;14.23;;;;;;;;;;5035947;28;20139;-69
2021/11/03 02:48:28;;;;;;;;;;;;;;;;;;5044442;28;20080;-69
2021/11/03 02:51:05;;;;;;;283.13;20.48;;;;;;;;;;5035765;28;19968;-69
2021/11/03 02:53:33;;;;;;;133.60;15.90;;;;;;;;;;5040511;28;20156;-69
2021/11/03 02:56:00;;;;;;;155.82;19.60;;;;;;;;;;5043959;28;20140;-69
2021/11/03 02:58:26;;;;;;;154.95;16.85;;;;;;;;;;5040288;28;20191;-69
2021/11/03 03:00:54;;;;;;;27.23;12.43;;;;;;;;;;5034887;28;20128;-69
2021/11/03 03:03:20;;;;;;;25.58;11.63;;;;;;;;;;5040287;28;20131;-69
2021/11/03 03:05:59;;;;;;;26.10;12.40;;;;;;;;;;5040362;28;20076;-69
2021/11/03 03:08:25;;;;;;;16.92;10.00;;;;;;;;;;5037250;28;20128;-69
2021/11/03 03:10:52;;;;;;;17.95;10.30;;;;;;;;;;5037982;28;20141;-69
2021/11/03 03:13:18;;;;;;;17.98;10.23;;;;;;;;;;5035901;28;20141;-69
2021/11/03 03:15:45;;;;;;;22.40;10.77;;;;;;;;;;5042547;28;20053;-69
2021/11/03 03:18:11;;;;;;;27.92;12.05;;;;;;;;;;5043598;28;20581;-69
2021/11/03 03:20:38;;;;;;;20.33;11.82;;;;;;;;;;5040686;28;20475;-69
2021/11/03 03:23:05;;;;;;;19.17;10.60;;;;;;;;;;5038003;28;20077;-69
2021/11/03 03:25:32;;;;;;;28.88;12.20;;;;;;;;;;5038738;28;20073;-69
2021/11/03 03:27:58;;;;;;;23.50;10.95;;;;;;;;;;5039738;28;20073;-69
2021/11/03 03:30:25;;;;;;;21.70;10.63;;;;;;;;;;5043390;28;20527;-68
2021/11/03 03:32:51;;;;;;;17.20;9.48;;;;;;;;;;5038955;28;20144;-69
2021/11/03 03:35:18;;;;;;;30.10;11.32;;;;;;;;;;5046433;28;20076;-68
2021/11/03 03:37:44;;;;;;;25.90;10.13;;;;;;;;;;5035989;28;20068;-69
2021/11/03 03:40:11;;;;;;;24.15;10.27;;;;;;;;;;5035678;28;20097;-69
2021/11/03 03:42:37;;;;;;;19.70;10.77;;;;;;;;;;5038860;28;20595;-69
2021/11/03 03:45:05;;;;;;;24.58;10.57;;;;;;;;;;5044955;28;20080;-69
2021/11/03 03:47:31;;;;;;;28.45;10.88;;;;;;;;;;5039515;28;20072;-69
2021/11/03 03:49:57;;;;;;;22.80;11.27;;;;;;;;;;5034496;28;20132;-69
2021/11/03 03:52:26;;;;;;;20.55;10.15;;;;;;;;;;5042920;28;20152;-69
2021/11/03 03:54:55;;;;;;;23.30;10.40;;;;;;;;;;5039867;28;20044;-69
2021/11/03 03:57:26;;;;;;;21.05;10.50;;;;;;;;;;5042235;28;20049;-69
2021/11/03 03:59:53;;;;;;;21.07;10.63;;;;;;;;;;5036449;28;20130;-69
2021/11/03 04:02:19;;;;;;;18.77;10.38;;;;;;;;;;5041031;28;20383;-69
2021/11/03 04:04:45;;;;;;;23.13;11.48;;;;;;;;;;5033423;28;20049;-69
2021/11/03 04:07:12;;;;;;;25.48;10.55;;;;;;;;;;5043219;28;20080;-69
2021/11/03 04:09:38;;;;;;;19.77;9.68;;;;;;;;;;5042316;28;20128;-69
2021/11/03 04:12:05;;;;;;;15.90;9.02;;;;;;;;;;5038295;28;20136;-69
2021/11/03 04:14:32;;;;;;;17.23;9.13;;;;;;;;;;5040028;28;20593;-69
2021/11/03 04:16:58;;;;;;;18.95;9.93;;;;;;;;;;5038221;28;20068;-69
2021/11/03 04:19:24;;;;;;;18.17;9.10;;;;;;;;;;5036868;28;20099;-69
2021/11/03 04:21:51;;;;;;;20.15;10.27;;;;;;;;;;5041960;28;20052;-69
2021/11/03 04:24:18;;;;;;;;;;;;;;;;;;5040712;28;20047;-69
2021/11/03 04:26:47;;;;;;;20.45;9.80;;;;;;;;;;5034759;28;20017;-69
2021/11/03 04:29:15;;;;;;;26.23;10.80;;;;;;;;;;5034532;28;20567;-69
2021/11/03 04:31:41;;;;;;;22.05;10.60;;;;;;;;;;5035401;28;20084;-69
2021/11/03 04:34:08;;;;;;;16.25;9.68;;;;;;;;;;5038498;28;20049;-69
2021/11/03 04:36:35;;;;;;;19.00;9.00;;;;;;;;;;5045581;28;20587;-69
2021/11/03 04:39:04;;;;;;;13.83;8.77;;;;;;;;;;5036706;28;20092;-69
2021/11/03 04:41:30;;;;;;;17.80;9.52;;;;;;;;;;5038592;28;20142;-69
2021/11/03 04:43:57;;;;;;;16.90;8.63;;;;;;;;;;5042136;28;20057;-69
2021/11/03 04:46:24;;;;;;;18.95;10.00;;;;;;;;;;5038661;28;20085;-69
2021/11/03 04:48:50;;;;;;;26.63;12.32;;;;;;;;;;5037190;28;20080;-69
2021/11/03 04:51:18;;;;;;;23.33;11.55;;;;;;;;;;5034215;28;20593;-69
2021/11/03 04:53:44;;;;;;;22.20;10.67;;;;;;;;;;5033481;28;20045;-69
2021/11/03 04:56:11;;;;;;;22.33;10.67;;;;;;;;;;5045023;28;20330;-69
2021/11/03 04:58:39;;;;;;;26.90;11.13;;;;;;;;;;5040751;28;20072;-69
2021/11/03 05:01:06;;;;;;;26.88;11.60;;;;;;;;;;5038066;28;20072;-69
2021/11/03 05:03:38;;;;;;;21.48;9.50;;;;;;;;;;5035421;28;20142;-70
2021/11/03 05:06:05;;;;;;;19.77;10.27;;;;;;;;;;5027522;28;20490;-68
2021/11/03 05:08:32;;;;;;;23.90;10.88;;;;;;;;;;5040835;28;20148;-69
2021/11/03 05:10:58;;;;;;;23.40;10.95;;;;;;;;;;5040497;28;20116;-69
2021/11/03 05:13:25;;;;;;;23.48;10.82;;;;;;;;;;5036896;28;20123;-69
2021/11/03 05:15:51;;;;;;;26.33;11.20;;;;;;;;;;5042898;28;20048;-69
2021/11/03 05:18:18;;;;;;;23.45;10.65;;;;;;;;;;5035317;28;20092;-69
2021/11/03 05:20:45;;;;;;;29.52;11.30;;;;;;;;;;5041241;28;20132;-69
2021/11/03 05:23:11;;;;;;;30.83;10.93;;;;;;;;;;5036656;28;20069;-69
2021/11/03 05:25:38;;;;;;;25.00;10.85;;;;;;;;;;5033547;28;20437;-69
2021/11/03 05:28:05;;;;;;;21.80;9.85;;;;;;;;;;5036829;28;20476;-69
2021/11/03 05:30:32;;;;;;;22.45;10.10;;;;;;;;;;5037699;28;20099;-69
2021/11/03 05:32:58;;;;;;;18.73;7.85;;;;;;;;;;5036660;28;20517;-69
2021/11/03 05:35:25;;;;;;;18.67;9.87;;;;;;;;;;5040496;28;20076;-69
2021/11/03 05:37:51;;;;;;;21.55;10.23;;;;;;;;;;5036866;28;20132;-69
2021/11/03 05:40:19;;;;;;;20.00;10.15;;;;;;;;;;5040760;28;20153;-69
2021/11/03 05:42:46;;;;;;;16.23;9.82;;;;;;;;;;5042124;28;20083;-69
2021/11/03 05:45:12;;;;;;;25.13;10.68;;;;;;;;;;5039898;28;20077;-69
2021/11/03 05:47:39;;;;;;;25.52;10.57;;;;;;;;;;5037048;28;20088;-69
2021/11/03 05:50:07;;;;;;;19.33;10.27;;;;;;;;;;5036817;28;20576;-69
2021/11/03 05:52:33;;;;;;;23.60;10.98;;;;;;;;;;5039903;28;20088;-69
2021/11/03 05:55:00;;;;;;;22.17;10.25;;;;;;;;;;5035829;28;20161;-69
2021/11/03 05:57:31;;;;;;;23.65;10.13;;;;;;;;;;5038732;28;20556;-69
2021/11/03 05:59:58;;;;;;;17.58;8.25;;;;;;;;;;5034746;28;20336;-69
2021/11/03 06:02:25;;;;;;;21.13;9.57;;;;;;;;;;5033955;28;20077;-69
2021/11/03 06:04:52;;;;;;;23.27;10.48;;;;;;;;;;5034646;28;20045;-68
2021/11/03 06:07:22;;;;;;;25.55;10.65;;;;;;;;;;5034539;28;20088;-69
2021/11/03 06:09:51;;;;;;;22.10;9.82;;;;;;;;;;5048183;28;20041;-69
2021/11/03 06:12:17;;;;;;;20.20;9.10;;;;;;;;;;5039496;28;20566;-69
2021/11/03 06:14:44;;;;;;;21.55;10.40;;;;;;;;;;5038652;28;20073;-69
2021/11/03 06:17:10;;;;;;;23.95;9.57;;;;;;;;;;5040264;28;20080;-69
2021/11/03 06:19:37;;;;;;;26.02;10.57;;;;;;;;;;5039817;28;20509;-68
2021/11/03 06:22:03;;;;;;;26.27;9.63;;;;;;;;;;5035985;28;20128;-69
2021/11/03 06:24:31;;;;;;;24.10;9.27;;;;;;;;;;5039158;28;20136;-69
2021/11/03 06:26:58;;;;;;;22.90;9.98;;;;;;;;;;5038781;28;20065;-69
2021/11/03 06:29:24;;;;;;;25.60;10.02;;;;;;;;;;5032443;28;20513;-69
2021/11/03 06:31:51;;;;;;;20.65;9.43;;;;;;;;;;5032776;28;20085;-69
2021/11/03 06:34:17;;;;;;;19.30;10.07;;;;;;;;;;5027474;28;20134;-69
2021/11/03 06:36:43;;;;;;;20.10;9.35;;;;;;;;;;5034979;28;20085;-69
2021/11/03 06:39:10;;;;;;;15.70;8.77;;;;;;;;;;5040420;28;20149;-68
2021/11/03 06:41:38;;;;;;;23.60;9.50;;;;;;;;;;5037440;28;20053;-69
2021/11/03 06:44:04;;;;;;;;;;;;;;;;;;5037714;28;20106;-69
2021/11/03 06:46:31;;;;;;;21.05;10.07;;;;;;;;;;5035053;28;20012;-69
2021/11/03 06:48:59;;;;;;;18.40;8.82;;;;;;;;;;5024346;28;20056;-69
2021/11/03 06:51:26;;;;;;;14.77;8.18;;;;;;;;;;5040643;28;20092;-68
2021/11/03 06:53:53;;;;;;;20.50;9.30;;;;;;;;;;5041271;28;20085;-69
2021/11/03 06:56:19;;;;;;;15.18;8.77;;;;;;;;;;5041411;28;20084;-69
2021/11/03 06:58:46;;;;;;;25.38;9.95;;;;;;;;;;5037727;28;20095;-68
2021/11/03 07:01:12;;;;;;;21.08;9.43;;;;;;;;;;5042776;28;20083;-69
2021/11/03 07:03:41;;;;;;;18.95;9.35;;;;;;;;;;5045780;28;20045;-69
2021/11/03 07:06:08;;;;;;;18.88;9.23;;;;;;;;;;5043517;28;20141;-69
2021/11/03 07:08:35;;;;;;;17.27;9.23;;;;;;;;;;5047845;28;20083;-69
2021/11/03 07:11:01;;;;;;;24.55;9.32;;;;;;;;;;5040512;28;20136;-69
2021/11/03 07:13:28;;;;;;;20.57;9.80;;;;;;;;;;5041606;28;20053;-68
2021/11/03 07:15:55;;;;;;;17.85;9.95;;;;;;;;;;5050259;28;20132;-69
2021/11/03 07:18:22;;;;;;;19.20;9.48;;;;;;;;;;5043821;28;20049;-68
2021/11/03 07:20:49;;;;;;;20.55;8.75;;;;;;;;;;5045357;28;20132;-69
2021/11/03 07:23:17;;;;;;;20.30;9.40;;;;;;;;;;5040574;28;20091;-68
2021/11/03 07:25:44;;;;;;;24.27;10.27;;;;;;;;;;5041251;28;20124;-69
2021/11/03 07:28:11;;;;;;;21.33;9.77;;;;;;;;;;5041762;28;20126;-69
2021/11/03 07:30:39;;;;;;;19.80;9.68;;;;;;;;;;5040138;28;20125;-69
2021/11/03 07:33:08;;;;;;;22.77;9.48;;;;;;;;;;5040868;28;20045;-69
2021/11/03 07:35:35;;;;;;;23.40;9.68;;;;;;;;;;5040897;28;20133;-69
2021/11/03 07:38:02;;;;;;;21.20;9.50;;;;;;;;;;5040606;28;20076;-69
2021/11/03 07:40:31;;;;;;;21.33;8.95;;;;;;;;;;5038864;28;20553;-68
2021/11/03 07:42:58;;;;;;;26.23;9.75;;;;;;;;;;5042232;28;20076;-69
2021/11/03 07:45:25;;;;;;;17.90;9.95;;;;;;;;;;5036894;28;20045;-69
2021/11/03 07:47:52;;;;;;;16.65;9.50;;;;;;;;;;5036379;28;20571;-69
2021/11/03 07:50:20;;;;;;;19.02;9.23;;;;;;;;;;5039787;28;20080;-69
2021/11/03 07:52:47;;;;;;;24.10;10.18;;;;;;;;;;5042757;28;20080;-69
2021/11/03 07:55:13;;;;;;;20.38;10.50;;;;;;;;;;5038547;28;20141;-69
2021/11/03 07:57:40;;;;;;;17.73;10.07;;;;;;;;;;5043912;28;20106;-69
2021/11/03 08:00:16;;;;;;;13.98;7.70;;;;;;;;;;5037659;28;20128;-69
2021/11/03 08:02:42;;;;;;;20.23;10.30;;;;;;;;;;5040314;28;20475;-69
2021/11/03 08:05:09;;;;;;;19.30;10.13;;;;;;;;;;5037214;28;20045;-69
2021/11/03 08:07:35;;;;;;;25.33;11.05;;;;;;;;;;5040685;28;20052;-69
2021/11/03 08:10:03;;;;;;;19.45;9.75;;;;;;;;;;5038303;28;20132;-69
2021/11/03 08:12:29;;;;;;;21.33;10.88;;;;;;;;;;5036851;28;20095;-69
2021/11/03 08:14:55;;;;;;;21.55;10.70;;;;;;;;;;5038416;28;20056;-69
2021/11/03 08:17:24;;;;;;;23.33;9.83;;;;;;;;;;5039677;28;20080;-69
2021/11/03 08:19:52;;;;;;;25.13;10.95;;;;;;;;;;5039913;28;20307;-69
2021/11/03 08:22:21;;;;;;;20.30;9.65;;;;;;;;;;5035345;28;20080;-69
2021/11/03 08:24:48;;;;;;;20.00;10.15;;;;;;;;;;5035328;28;20136;-69
2021/11/03 08:27:15;;;;;;;22.42;9.63;;;;;;;;;;5037987;28;20124;-69
2021/11/03 08:29:41;;;;;;;21.42;10.82;;;;;;;;;;5042289;28;20489;-69
2021/11/03 08:32:10;;;;;;;16.08;9.77;;;;;;;;;;5043984;28;20056;-69
2021/11/03 08:34:37;;;;;;;20.65;10.05;;;;;;;;;;5038938;28;20076;-69
2021/11/03 08:37:08;;;;;;;14.93;9.45;;;;;;;;;;5044648;28;20129;-69
2021/11/03 08:39:37;;;;;;;16.52;10.00;;;;;;;;;;5043944;28;20144;-69
2021/11/03 08:42:06;;;;;;;23.73;9.68;;;;;;;;;;5033810;28;20041;-69
2021/11/03 08:44:35;;;;;;;16.88;9.65;;;;;;;;;;5033392;28;20128;-69
2021/11/03 08:47:02;;;;;;;17.50;8.85;;;;;;;;;;5037011;28;20501;-69
2021/11/03 08:49:29;;;;;;;18.38;9.25;;;;;;;;;;5040892;28;20069;-69
2021/11/03 08:51:56;;;;;;;16.27;8.90;;;;;;;;;;5041523;28;20461;-69
2021/11/03 08:54:23;;;;;;;;;;;;;;;;;;5038457;28;20516;-69
2021/11/03 08:57:01;;;;;;;10.45;7.15;;;;;;;;;;5038012;28;20288;-69
2021/11/03 08:59:28;;;;;;;15.63;8.23;;;;;;;;;;5040791;28;20092;-69
2021/11/03 09:01:55;;;;;;;17.70;8.07;;;;;;;;;;5040573;28;20042;-69
2021/11/03 09:04:21;;;;;;;16.13;8.10;;;;;;;;;;5039209;28;20099;-69
2021/11/03 09:06:48;;;;;;;8.27;6.22;;;;;;;;;;5041341;28;20500;-69
2021/11/03 09:09:15;;;;;;;13.73;7.57;;;;;;;;;;5039499;28;20491;-69
2021/11/03 09:11:41;;;;;;;17.83;8.60;;;;;;;;;;5042110;28;20083;-69
2021/11/03 09:14:08;;;;;;;13.07;7.28;;;;;;;;;;5036929;28;20588;-69
2021/11/03 09:16:35;;;;;;;10.60;6.93;;;;;;;;;;5039327;28;20073;-69
2021/11/03 09:19:02;;;;;;;12.57;6.60;;;;;;;;;;5039855;28;20646;-69
2021/11/03 09:21:29;;;;;;;13.77;7.40;;;;;;;;;;5037901;28;20132;-69
2021/11/03 09:23:55;;;;;;;13.05;7.18;;;;;;;;;;5038393;28;20051;-69
2021/11/03 09:26:22;;;;;;;12.45;7.00;;;;;;;;;;5034090;28;20124;-69
2021/11/03 09:28:51;;;;;;;10.43;7.53;;;;;;;;;;5034683;28;20522;-69
2021/11/03 09:31:18;;;;;;;10.63;7.45;;;;;;;;;;5037002;28;20480;-69
2021/11/03 09:33:44;;;;;;;10.95;7.80;;;;;;;;;;5034766;28;20137;-69
2021/11/03 09:36:13;;;;;;;12.88;7.22;;;;;;;;;;5034832;28;20133;-69
2021/11/03 09:38:40;;;;;;;11.35;6.68;;;;;;;;;;5034484;28;20096;-69
2021/11/03 09:41:06;;;;;;;11.57;6.20;;;;;;;;;;5039169;28;20053;-69
2021/11/03 09:43:36;;;;;;;12.75;6.15;;;;;;;;;;5035671;28;20144;-70
2021/11/03 09:46:13;;;;;;;10.20;5.65;;;;;;;;;;5039336;28;20092;-69
2021/11/03 09:48:40;;;;;;;6.88;5.60;;;;;;;;;;5038434;28;20049;-69
2021/11/03 09:51:14;;;;;;;11.18;5.78;;;;;;;;;;5040727;28;20465;-69
2021/11/03 09:53:46;;;;;;;10.20;6.13;;;;;;;;;;5044044;28;20571;-69
2021/11/03 09:56:15;;;;;;;9.65;5.38;;;;;;;;;;5033444;28;20132;-69
2021/11/03 09:58:53;;;;;;;7.50;5.35;;;;;;;;;;5036159;28;20566;-70
2021/11/03 10:01:22;;;;;;;10.85;5.85;;;;;;;;;;5041243;28;20120;-69
2021/11/03 10:03:49;;;;;;;11.10;5.22;;;;;;;;;;5036228;28;20063;-70
2021/11/03 10:06:24;;;;;;;10.45;5.22;;;;;;;;;;5041736;28;20049;-70
2021/11/03 10:08:52;;;;;;;9.98;5.18;;;;;;;;;;5039766;28;20131;-69
2021/11/03 10:11:24;;;;;;;7.13;4.88;;;;;;;;;;5037080;28;20077;-70
2021/11/03 10:13:52;;;;;;;6.75;5.10;;;;;;;;;;5039506;28;20057;-69
2021/11/03 10:16:19;;;;;;;8.15;5.45;;;;;;;;;;5034160;28;20072;-69
2021/11/03 10:18:52;;;;;;;6.80;4.90;;;;;;;;;;5040649;28;20049;-70
2021/11/03 10:21:23;;;;;;;8.43;5.00;;;;;;;;;;5034728;28;20099;-70
2021/11/03 10:24:01;;;;;;;12.77;6.93;;;;;;;;;;5039752;28;20463;-69
2021/11/03 10:26:29;;;;;;;9.80;6.20;;;;;;;;;;5041077;28;20080;-69
2021/11/03 10:29:28;;;;;;;9.10;6.43;;;;;;;;;;5038360;28;20084;-69
2021/11/03 10:31:56;;;;;;;12.85;6.65;;;;;;;;;;4998959;28;20141;-69
2021/11/03 10:34:23;;;;;;;12.18;7.45;;;;;;;;;;5042460;28;20092;-69
2021/11/03 10:36:59;;;;;;;10.43;6.82;;;;;;;;;;5037991;28;20105;-70
2021/11/03 10:39:27;;;;;;;12.35;6.03;;;;;;;;;;5042536;28;20092;-69
2021/11/03 10:41:54;;;;;;;11.80;6.53;;;;;;;;;;5040672;28;20076;-69
2021/11/03 10:44:23;;;;;;;9.98;5.28;;;;;;;;;;5045136;28;20124;-70
2021/11/03 10:46:55;;;;;;;8.10;5.18;;;;;;;;;;5044002;28;20053;-70
2021/11/03 10:49:27;;;;;;;10.82;5.68;;;;;;;;;;5046715;28;20052;-70
2021/11/03 10:52:14;;;;;;;10.65;5.07;;;;;;;;;;5029047;28;20076;-69
2021/11/03 10:54:47;;;;;;;11.70;5.28;;;;;;;;;;5028809;28;20458;-70
2021/11/03 10:57:20;;;;;;;10.90;5.72;;;;;;;;;;5041144;28;20555;-69
2021/11/03 10:59:49;;;;;;;9.73;5.60;;;;;;;;;;5039747;28;20085;-70
2021/11/03 11:02:28;;;;;;;8.07;5.22;;;;;;;;;;5043764;28;20090;-70
2021/11/03 11:04:56;;;;;;;12.25;5.53;;;;;;;;;;5037822;28;20049;-69
2021/11/03 11:07:28;;;;;;;8.52;4.88;;;;;;;;;;5038142;28;20466;-70
2021/11/03 11:09:57;;;;;;;9.57;4.93;;;;;;;;;;5043683;28;20072;-69
2021/11/03 11:12:25;;;;;;;9.80;4.40;;;;;;;;;;5038954;28;20124;-70
2021/11/03 11:14:53;;;;;;;9.02;4.93;;;;;;;;;;5047875;28;20099;-70
2021/11/03 11:17:23;;;;;;;8.93;4.93;;;;;;;;;;5039330;28;20124;-69
2021/11/03 11:19:57;;;;;;;8.95;4.38;;;;;;;;;;5038745;28;20144;-70
2021/11/03 11:22:24;;;;;;;10.25;5.28;;;;;;;;;;5038425;28;20084;-69
2021/11/03 11:24:50;;;;;;;9.73;4.95;;;;;;;;;;5039398;28;20132;-70
2021/11/03 11:27:20;;;;;;;6.85;4.75;;;;;;;;;;5041003;28;20127;-69
2021/11/03 11:29:49;;;;;;;13.30;5.00;;;;;;;;;;5035383;28;20045;-70
2021/11/03 11:32:27;;;;;;;10.60;5.32;;;;;;;;;;5026698;28;20091;-70
2021/11/03 11:34:57;;;;;;;12.27;6.15;;;;;;;;;;5041178;28;20108;-70
2021/11/03 11:37:32;;;;;;;12.88;5.55;;;;;;;;;;5042532;28;20068;-69
2021/11/03 11:40:07;;;;;;;7.97;5.22;;;;;;;;;;5036924;28;20093;-71
2021/11/03 11:42:34;;;;;;;10.20;5.32;;;;;;;;;;5043051;28;20083;-70
2021/11/03 11:45:11;;;;;;;10.52;4.50;;;;;;;;;;5039115;28;20132;-70
2021/11/03 11:47:43;;;;;;;7.07;4.53;;;;;;;;;;5038503;28;20121;-70
2021/11/03 11:50:28;;;;;;;6.45;3.60;;;;;;;;;;5041279;28;20079;-70
2021/11/03 11:52:55;;;;;;;7.03;4.00;;;;;;;;;;5042024;28;20045;-69
2021/11/03 11:55:27;;;;;;;7.88;3.10;;;;;;;;;;5037157;28;20524;-70
2021/11/03 11:58:05;;;;;;;7.32;3.10;;;;;;;;;;5037652;28;20575;-70
2021/11/03 12:00:33;;;;;;;7.65;3.30;;;;;;;;;;5041170;28;20053;-70
2021/11/03 12:03:03;;;;;;;9.10;4.10;;;;;;;;;;5040952;28;20045;-70
2021/11/03 12:05:42;;;;;;;8.90;4.85;;;;;;;;;;5041476;28;20459;-70
2021/11/03 12:08:09;;;;;;;11.50;5.47;;;;;;;;;;5049451;28;20420;-70
2021/11/03 12:10:36;;;;;;;13.40;5.90;;;;;;;;;;5050656;28;20072;-70
2021/11/03 12:13:19;;;;;;;10.05;6.07;;;;;;;;;;5038132;28;20080;-70
2021/11/03 12:15:49;;;;;;;8.93;5.25;;;;;;;;;;5038758;28;20049;-70
2021/11/03 12:18:39;;;;;;;15.95;5.57;;;;;;;;;;5037964;28;20045;-70
2021/11/03 12:21:35;;;;;;;15.07;5.85;;;;;;;;;;5038967;28;20477;-70
2021/11/03 12:24:08;;;;;;;12.20;5.40;;;;;;;;;;4961740;28;20133;-69
2021/11/03 12:26:37;;;;;;;11.95;6.25;;;;;;;;;;5034891;28;20128;-70
2021/11/03 12:29:16;;;;;;;11.93;5.82;;;;;;;;;;5039722;28;20081;-70
2021/11/03 12:31:42;;;;;;;13.43;5.63;;;;;;;;;;5041219;28;20634;-70
2021/11/03 12:34:09;;;;;;;17.40;5.93;;;;;;;;;;5045166;28;20053;-70
2021/11/03 12:36:54;;;;;;;12.95;5.82;;;;;;;;;;5040044;28;20524;-70
2021/11/03 12:39:30;;;;;;;14.13;5.38;;;;;;;;;;5038713;28;20140;-69
2021/11/03 12:41:56;;;;;;;11.35;5.40;;;;;;;;;;5032379;28;20390;-70
2021/11/03 12:44:32;;;;;;;6.72;4.65;;;;;;;;;;5037316;28;20095;-70
2021/11/03 12:46:59;;;;;;;10.57;5.22;;;;;;;;;;5038796;28;20137;-70
2021/11/03 12:49:27;;;;;;;16.05;4.65;;;;;;;;;;5041266;28;20501;-70
2021/11/03 12:51:55;;;;;;;13.60;4.75;;;;;;;;;;5037414;28;20081;-70
2021/11/03 12:54:23;;;;;;;11.00;4.43;;;;;;;;;;5037338;28;20112;-70
2021/11/03 12:56:52;;;;;;;7.18;4.10;;;;;;;;;;5036855;28;20045;-70
2021/11/03 12:59:22;;;;;;;11.43;4.35;;;;;;;;;;5040592;28;20153;-70
2021/11/03 13:01:53;;;;;;;9.23;5.20;;;;;;;;;;5039408;28;20088;-70
2021/11/03 13:04:30;;;;;;;12.57;4.45;;;;;;;;;;5041676;28;20440;-70
2021/11/03 13:06:59;;;;;;;10.35;4.07;;;;;;;;;;5042445;28;20048;-69
2021/11/03 13:09:34;;;;;;;9.25;4.30;;;;;;;;;;5039755;28;20655;-69
2021/11/03 13:12:01;;;;;;;10.65;3.97;;;;;;;;;;5038316;28;20084;-69
2021/11/03 13:14:30;;;;;;;9.60;4.03;;;;;;;;;;5042003;28;20131;-70
2021/11/03 13:16:58;;;;;;;8.82;3.55;;;;;;;;;;5037030;28;20076;-69
2021/11/03 13:19:35;;;;;;;10.10;3.55;;;;;;;;;;5042136;28;20521;-69
2021/11/03 13:22:03;;;;;;;11.88;3.70;;;;;;;;;;5041446;28;20124;-69
2021/11/03 13:24:34;;;;;;;8.98;3.58;;;;;;;;;;5038673;28;20561;-69
2021/11/03 13:27:12;;;;;;;11.63;4.20;;;;;;;;;;5038757;28;20050;-69
2021/11/03 13:29:40;;;;;;;7.05;4.07;;;;;;;;;;5044608;28;20107;-69
2021/11/03 13:32:14;;;;;;;14.52;3.63;;;;;;;;;;5039610;28;20110;-70
2021/11/03 13:34:56;;;;;;;13.02;3.72;;;;;;;;;;5039930;28;20444;-70
2021/11/03 13:37:41;;;;;;;10.38;4.13;;;;;;;;;;5039247;28;20127;-70
2021/11/03 13:40:14;;;;;;;7.30;4.05;;;;;;;;;;5036902;28;20096;-69
2021/11/03 13:42:44;;;;;;;13.25;4.10;;;;;;;;;;5038970;28;20128;-69
2021/11/03 13:45:23;;;;;;;11.30;4.00;;;;;;;;;;5041336;28;20080;-69
2021/11/03 13:48:14;;;;;;;11.07;4.45;;;;;;;;;;5041832;28;20053;-70
2021/11/03 13:50:44;;;;;;;7.13;4.13;;;;;;;;;;5035282;28;20072;-69
2021/11/03 13:53:11;;;;;;;10.13;3.97;;;;;;;;;;5037926;28;20084;-69
2021/11/03 13:55:39;;;;;;;10.00;4.18;;;;;;;;;;5041094;28;20059;-69
2021/11/03 13:58:25;;;;;;;11.25;4.15;;;;;;;;;;5038336;28;20080;-69
2021/11/03 14:01:00;;;;;;;11.63;4.95;;;;;;;;;;5039794;28;20075;-69
2021/11/03 14:03:36;;;;;;;9.85;4.25;;;;;;;;;;5044834;28;20401;-69
2021/11/03 14:06:11;;;;;;;9.57;3.67;;;;;;;;;;5040591;28;20055;-69
2021/11/03 14:08:37;;;;;;;8.75;3.50;;;;;;;;;;5042814;28;20069;-69
2021/11/03 14:11:19;;;;;;;9.23;3.88;;;;;;;;;;5043942;28;20497;-69
2021/11/03 14:13:46;;;;;;;10.00;3.55;;;;;;;;;;5040816;28;20552;-69
2021/11/03 14:16:27;;;;;;;11.23;4.10;;;;;;;;;;5046761;28;20103;-69
2021/11/03 14:18:54;;;;;;;7.90;4.10;;;;;;;;;;5042764;28;20420;-69
2021/11/03 14:21:22;;;;;;;14.45;3.85;;;;;;;;;;5045045;28;20092;-69
2021/11/03 14:23:48;;;;;;;8.38;3.88;;;;;;;;;;5039640;28;20127;-69
2021/11/03 14:26:16;;;;;;;7.87;3.37;;;;;;;;;;5039751;28;20465;-69
2021/11/03 14:28:46;;;;;;;9.45;4.13;;;;;;;;;;5046325;28;20059;-69
2021/11/03 14:31:19;;;;;;;7.18;3.78;;;;;;;;;;5044174;28;20137;-69
2021/11/03 14:33:46;;;;;;;10.57;4.20;;;;;;;;;;5041271;28;20700;-69
2021/11/03 14:36:15;;;;;;;9.63;3.72;;;;;;;;;;5042837;28;20073;-69
2021/11/03 14:38:42;;;;;;;7.88;4.30;;;;;;;;;;5040586;28;20576;-69